sensor_id;sensor_type;location;lat;lon;timestamp;pressure;altitude;pressure_sealevel;temperature;humidity
39699;BME280;25372;50.582;12.250;2023-04-26T00:08:33;99662.03;;;4.40;70.72
39699;BME280;25372;50.582;12.250;2023-04-26T00:18:55;99662.06;;;4.17;72.36
39699;BME280;25372;50.582;12.250;2023-04-26T00:29:16;99677.34;;;3.81;72.75
39699;BME280;25372;50.582;12.250;2023-04-26T00:39:38;99680.75;;;3.81;73.36
39699;BME280;25372;50.582;12.250;2023-04-26T00:50:00;99695.72;;;3.52;74.39
39699;BME280;25372;50.582;12.250;2023-04-26T01:00:22;99692.50;;;3.20;74.81
39699;BME280;25372;50.582;12.250;2023-04-26T01:10:43;99702.44;;;3.08;75.47
39699;BME280;25372;50.582;12.250;2023-04-26T01:21:36;99705.00;;;2.83;73.97
39699;BME280;25372;50.582;12.250;2023-04-26T01:31:59;99705.94;;;2.80;74.40
39699;BME280;25372;50.582;12.250;2023-04-26T01:42:21;99710.63;;;2.96;74.00
39699;BME280;25372;50.582;12.250;2023-04-26T01:52:43;99713.28;;;2.94;72.60
39699;BME280;25372;50.582;12.250;2023-04-26T02:03:04;99723.31;;;3.05;73.91
39699;BME280;25372;50.582;12.250;2023-04-26T02:13:26;99725.78;;;3.08;74.07
39699;BME280;25372;50.582;12.250;2023-04-26T02:23:47;99721.84;;;2.97;73.64
39699;BME280;25372;50.582;12.250;2023-04-26T02:34:09;99724.91;;;3.08;74.44
39699;BME280;25372;50.582;12.250;2023-04-26T02:44:32;99724.88;;;3.10;75.27
39699;BME280;25372;50.582;12.250;2023-04-26T02:54:54;99719.00;;;3.04;74.88
39699;BME280;25372;50.582;12.250;2023-04-26T03:05:15;99732.78;;;2.79;74.10
39699;BME280;25372;50.582;12.250;2023-04-26T03:15:37;99723.06;;;2.86;74.26
39699;BME280;25372;50.582;12.250;2023-04-26T03:25:58;99745.56;;;2.86;75.52
39699;BME280;25372;50.582;12.250;2023-04-26T03:36:21;99747.09;;;2.64;74.31
39699;BME280;25372;50.582;12.250;2023-04-26T03:46:42;99754.34;;;2.26;74.20
39699;BME280;25372;50.582;12.250;2023-04-26T03:57:06;99759.19;;;2.08;76.64
39699;BME280;25372;50.582;12.250;2023-04-26T04:07:28;99772.22;;;2.07;75.73
39699;BME280;25372;50.582;12.250;2023-04-26T04:17:54;99762.44;;;2.15;75.53
39699;BME280;25372;50.582;12.250;2023-04-26T04:28:15;99776.25;;;2.16;75.17
39699;BME280;25372;50.582;12.250;2023-04-26T04:38:39;99776.78;;;2.27;74.42
39699;BME280;25372;50.582;12.250;2023-04-26T04:49:01;99788.19;;;2.50;72.14
39699;BME280;25372;50.582;12.250;2023-04-26T04:59:24;99782.19;;;2.76;70.23
39699;BME280;25372;50.582;12.250;2023-04-26T05:09:46;99787.56;;;2.97;71.10
39699;BME280;25372;50.582;12.250;2023-04-26T05:20:09;99804.38;;;3.63;70.19
39699;BME280;25372;50.582;12.250;2023-04-26T05:30:31;99808.59;;;7.69;57.05
39699;BME280;25372;50.582;12.250;2023-04-26T05:41:14;99814.91;;;6.40;61.33
39699;BME280;25372;50.582;12.250;2023-04-26T05:51:35;99830.47;;;4.78;66.63
39699;BME280;25372;50.582;12.250;2023-04-26T06:01:59;99827.88;;;4.55;66.53
39699;BME280;25372;50.582;12.250;2023-04-26T06:12:20;99831.06;;;4.40;66.08
39699;BME280;25372;50.582;12.250;2023-04-26T06:22:42;99833.19;;;4.52;65.21
39699;BME280;25372;50.582;12.250;2023-04-26T06:33:06;99843.31;;;5.04;64.15
39699;BME280;25372;50.582;12.250;2023-04-26T06:43:29;99843.63;;;4.74;65.14
39699;BME280;25372;50.582;12.250;2023-04-26T06:53:59;99844.72;;;5.55;62.97
39699;BME280;25372;50.582;12.250;2023-04-26T07:04:20;99863.38;;;5.44;62.21
39699;BME280;25372;50.582;12.250;2023-04-26T07:14:41;99861.03;;;5.79;59.17
39699;BME280;25372;50.582;12.250;2023-04-26T07:25:04;99868.41;;;5.49;58.73
39699;BME280;25372;50.582;12.250;2023-04-26T07:35:25;99864.50;;;5.59;57.55
39699;BME280;25372;50.582;12.250;2023-04-26T07:45:47;99854.88;;;6.01;56.91
39699;BME280;25372;50.582;12.250;2023-04-26T07:56:08;99857.81;;;6.33;57.39
39699;BME280;25372;50.582;12.250;2023-04-26T08:06:30;99851.69;;;7.09;52.90
39699;BME280;25372;50.582;12.250;2023-04-26T08:16:52;99870.09;;;6.31;53.49
39699;BME280;25372;50.582;12.250;2023-04-26T08:27:14;99876.38;;;6.65;52.46
39699;BME280;25372;50.582;12.250;2023-04-26T08:37:35;99870.28;;;9.36;49.12
39699;BME280;25372;50.582;12.250;2023-04-26T08:48:02;99862.75;;;7.32;50.85
39699;BME280;25372;50.582;12.250;2023-04-26T08:58:24;99865.88;;;7.21;50.91
39699;BME280;25372;50.582;12.250;2023-04-26T09:08:47;99827.44;;;9.66;44.71
39699;BME280;25372;50.582;12.250;2023-04-26T09:19:08;99857.47;;;11.17;42.90
39699;BME280;25372;50.582;12.250;2023-04-26T09:29:31;99861.22;;;7.97;49.85
39699;BME280;25372;50.582;12.250;2023-04-26T09:39:51;99868.69;;;7.36;49.80
39699;BME280;25372;50.582;12.250;2023-04-26T09:50:24;99862.44;;;7.56;52.70
39699;BME280;25372;50.582;12.250;2023-04-26T10:00:49;99863.00;;;8.94;48.77
39699;BME280;25372;50.582;12.250;2023-04-26T10:11:11;99865.91;;;8.74;47.30
39699;BME280;25372;50.582;12.250;2023-04-26T10:32:18;99864.53;;;8.01;47.34
39699;BME280;25372;50.582;12.250;2023-04-26T10:54:02;99861.56;;;9.35;43.59
39699;BME280;25372;50.582;12.250;2023-04-26T11:04:23;99858.03;;;8.58;46.81
39699;BME280;25372;50.582;12.250;2023-04-26T11:15:05;99859.72;;;9.21;45.93
39699;BME280;25372;50.582;12.250;2023-04-26T11:25:29;99855.06;;;9.57;42.51
39699;BME280;25372;50.582;12.250;2023-04-26T11:35:52;99858.97;;;9.19;41.54
39699;BME280;25372;50.582;12.250;2023-04-26T11:46:13;99866.94;;;8.21;46.11
39699;BME280;25372;50.582;12.250;2023-04-26T11:56:39;99875.50;;;7.56;47.94
39699;BME280;25372;50.582;12.250;2023-04-26T12:07:03;99882.97;;;8.65;46.55
39699;BME280;25372;50.582;12.250;2023-04-26T12:39:03;99865.00;;;9.81;44.01
39699;BME280;25372;50.582;12.250;2023-04-26T12:49:24;99879.16;;;9.33;45.91
39699;BME280;25372;50.582;12.250;2023-04-26T13:10:40;99865.56;;;9.72;43.19
39699;BME280;25372;50.582;12.250;2023-04-26T13:21:10;99861.38;;;9.98;43.25
39699;BME280;25372;50.582;12.250;2023-04-26T13:31:32;99866.53;;;9.40;42.68
39699;BME280;25372;50.582;12.250;2023-04-26T13:41:54;99874.19;;;8.82;44.89
39699;BME280;25372;50.582;12.250;2023-04-26T13:52:18;99887.41;;;8.79;46.04
39699;BME280;25372;50.582;12.250;2023-04-26T14:02:40;99870.31;;;9.50;43.09
39699;BME280;25372;50.582;12.250;2023-04-26T14:13:02;99881.06;;;10.49;41.27
39699;BME280;25372;50.582;12.250;2023-04-26T14:23:23;99885.22;;;9.03;44.16
39699;BME280;25372;50.582;12.250;2023-04-26T14:33:45;99899.59;;;8.80;47.73
39699;BME280;25372;50.582;12.250;2023-04-26T14:44:05;99891.81;;;8.94;45.19
39699;BME280;25372;50.582;12.250;2023-04-26T14:54:28;99895.00;;;9.16;43.89
39699;BME280;25372;50.582;12.250;2023-04-26T15:04:49;99868.00;;;8.51;45.93
39699;BME280;25372;50.582;12.250;2023-04-26T15:15:11;99902.38;;;8.77;44.27
39699;BME280;25372;50.582;12.250;2023-04-26T15:25:33;99894.28;;;8.81;48.73
39699;BME280;25372;50.582;12.250;2023-04-26T15:35:56;99893.22;;;8.02;46.91
39699;BME280;25372;50.582;12.250;2023-04-26T15:46:16;99867.31;;;7.97;46.25
39699;BME280;25372;50.582;12.250;2023-04-26T15:56:38;99891.59;;;8.00;46.40
39699;BME280;25372;50.582;12.250;2023-04-26T16:06:59;99908.47;;;7.76;49.01
39699;BME280;25372;50.582;12.250;2023-04-26T16:17:21;99893.88;;;8.06;47.41
39699;BME280;25372;50.582;12.250;2023-04-26T16:27:42;99904.72;;;7.47;47.53
39699;BME280;25372;50.582;12.250;2023-04-26T16:38:04;99908.31;;;7.26;46.95
39699;BME280;25372;50.582;12.250;2023-04-26T16:48:25;99913.78;;;7.57;50.68
39699;BME280;25372;50.582;12.250;2023-04-26T16:58:47;99912.50;;;7.48;49.58
39699;BME280;25372;50.582;12.250;2023-04-26T17:09:08;99925.59;;;7.29;50.79
39699;BME280;25372;50.582;12.250;2023-04-26T17:19:31;99917.94;;;7.07;50.57
39699;BME280;25372;50.582;12.250;2023-04-26T17:29:51;99934.41;;;6.90;52.25
39699;BME280;25372;50.582;12.250;2023-04-26T17:40:13;99946.69;;;6.88;51.29
39699;BME280;25372;50.582;12.250;2023-04-26T17:50:34;99946.91;;;6.83;51.63
39699;BME280;25372;50.582;12.250;2023-04-26T18:00:56;99951.22;;;6.65;52.26
39699;BME280;25372;50.582;12.250;2023-04-26T18:11:17;99952.75;;;6.50;53.49
39699;BME280;25372;50.582;12.250;2023-04-26T18:21:42;99964.59;;;6.17;56.04
39699;BME280;25372;50.582;12.250;2023-04-26T18:32:03;99963.88;;;5.93;59.84
39699;BME280;25372;50.582;12.250;2023-04-26T18:42:26;99980.13;;;5.77;61.26
39699;BME280;25372;50.582;12.250;2023-04-26T18:52:46;99983.28;;;5.85;60.90
39699;BME280;25372;50.582;12.250;2023-04-26T19:03:09;99986.13;;;5.79;62.84
39699;BME280;25372;50.582;12.250;2023-04-26T19:13:29;99995.91;;;5.74;64.23
39699;BME280;25372;50.582;12.250;2023-04-26T19:23:52;99992.72;;;5.23;62.22
39699;BME280;25372;50.582;12.250;2023-04-26T19:34:13;100003.78;;;5.28;65.52
39699;BME280;25372;50.582;12.250;2023-04-26T19:44:36;100000.78;;;5.39;63.85
39699;BME280;25372;50.582;12.250;2023-04-26T19:54:58;100009.44;;;5.39;63.19
39699;BME280;25372;50.582;12.250;2023-04-26T20:05:21;100004.09;;;5.20;65.08
39699;BME280;25372;50.582;12.250;2023-04-26T20:15:42;100009.47;;;5.15;62.47
39699;BME280;25372;50.582;12.250;2023-04-26T20:26:04;100010.69;;;4.59;64.09
39699;BME280;25372;50.582;12.250;2023-04-26T20:36:25;100010.59;;;4.11;66.05
39699;BME280;25372;50.582;12.250;2023-04-26T20:46:46;100009.88;;;3.81;66.75
39699;BME280;25372;50.582;12.250;2023-04-26T20:57:07;99997.03;;;3.20;69.77
39699;BME280;25372;50.582;12.250;2023-04-26T21:07:29;100003.75;;;2.36;71.47
39699;BME280;25372;50.582;12.250;2023-04-26T21:17:50;100018.38;;;2.70;69.27
39699;BME280;25372;50.582;12.250;2023-04-26T21:28:12;100009.38;;;2.84;71.17
39699;BME280;25372;50.582;12.250;2023-04-26T21:38:33;100018.31;;;2.73;69.84
39699;BME280;25372;50.582;12.250;2023-04-26T21:48:56;100034.09;;;2.65;71.29
39699;BME280;25372;50.582;12.250;2023-04-26T21:59:17;100042.88;;;2.27;69.84
39699;BME280;25372;50.582;12.250;2023-04-26T22:09:39;100040.88;;;2.38;69.77
39699;BME280;25372;50.582;12.250;2023-04-26T22:20:00;100052.06;;;2.40;71.59
39699;BME280;25372;50.582;12.250;2023-04-26T22:30:23;100059.50;;;2.19;72.08
39699;BME280;25372;50.582;12.250;2023-04-26T22:40:44;100053.28;;;1.90;72.54
39699;BME280;25372;50.582;12.250;2023-04-26T22:51:06;100071.16;;;2.01;73.13
39699;BME280;25372;50.582;12.250;2023-04-26T23:01:27;100073.59;;;2.07;71.35
39699;BME280;25372;50.582;12.250;2023-04-26T23:11:49;100073.91;;;1.95;73.81
39699;BME280;25372;50.582;12.250;2023-04-26T23:22:10;100075.00;;;1.85;72.79
39699;BME280;25372;50.582;12.250;2023-04-26T23:32:32;100080.97;;;1.88;72.87
39699;BME280;25372;50.582;12.250;2023-04-26T23:42:53;100078.09;;;1.63;72.43
39699;BME280;25372;50.582;12.250;2023-04-26T23:53:15;100072.19;;;1.56;74.25
